sensor_id;sensor_type;location;lat;lon;timestamp;P1;durP1;ratioP1;P2;durP2;ratioP2
11835;SDS011;5977;51.972;7.640;2023-04-06T00:01:54;142.17;;;46.30;;
11835;SDS011;5977;51.972;7.640;2023-04-06T00:04:22;142.97;;;46.80;;
11835;SDS011;5977;51.972;7.640;2023-04-06T00:06:50;141.77;;;46.20;;
11835;SDS011;5977;51.972;7.640;2023-04-06T00:09:17;142.00;;;46.30;;
11835;SDS011;5977;51.972;7.640;2023-04-06T00:11:47;141.97;;;46.40;;
11835;SDS011;5977;51.972;7.640;2023-04-06T00:14:14;142.20;;;46.37;;
11835;SDS011;5977;51.972;7.640;2023-04-06T00:16:43;141.73;;;46.20;;
11835;SDS011;5977;51.972;7.640;2023-04-06T00:19:11;142.20;;;46.37;;
11835;SDS011;5977;51.972;7.640;2023-04-06T00:21:39;142.30;;;46.40;;
11835;SDS011;5977;51.972;7.640;2023-04-06T00:24:07;141.63;;;46.27;;
11835;SDS011;5977;51.972;7.640;2023-04-06T00:26:35;141.80;;;46.23;;
11835;SDS011;5977;51.972;7.640;2023-04-06T00:29:05;142.07;;;46.40;;
11835;SDS011;5977;51.972;7.640;2023-04-06T00:31:33;141.77;;;46.23;;
11835;SDS011;5977;51.972;7.640;2023-04-06T00:34:01;141.83;;;46.27;;
11835;SDS011;5977;51.972;7.640;2023-04-06T00:36:29;141.93;;;46.33;;
11835;SDS011;5977;51.972;7.640;2023-04-06T00:38:57;141.73;;;46.20;;
11835;SDS011;5977;51.972;7.640;2023-04-06T00:41:25;141.77;;;46.27;;
11835;SDS011;5977;51.972;7.640;2023-04-06T00:43:53;141.67;;;46.23;;
11835;SDS011;5977;51.972;7.640;2023-04-06T00:46:22;142.23;;;46.43;;
11835;SDS011;5977;51.972;7.640;2023-04-06T00:48:50;141.90;;;46.37;;
11835;SDS011;5977;51.972;7.640;2023-04-06T00:51:18;141.97;;;46.37;;
11835;SDS011;5977;51.972;7.640;2023-04-06T00:53:46;141.67;;;46.20;;
11835;SDS011;5977;51.972;7.640;2023-04-06T00:56:14;142.53;;;46.60;;
11835;SDS011;5977;51.972;7.640;2023-04-06T00:58:49;141.60;;;46.23;;
11835;SDS011;5977;51.972;7.640;2023-04-06T01:01:17;141.07;;;46.03;;
11835;SDS011;5977;51.972;7.640;2023-04-06T01:03:48;141.57;;;46.27;;
11835;SDS011;5977;51.972;7.640;2023-04-06T01:06:18;141.97;;;46.30;;
11835;SDS011;5977;51.972;7.640;2023-04-06T01:08:55;141.67;;;46.20;;
11835;SDS011;5977;51.972;7.640;2023-04-06T01:11:25;141.50;;;46.20;;
11835;SDS011;5977;51.972;7.640;2023-04-06T01:13:53;141.77;;;46.27;;
11835;SDS011;5977;51.972;7.640;2023-04-06T01:16:35;141.20;;;46.13;;
11835;SDS011;5977;51.972;7.640;2023-04-06T01:19:17;141.17;;;46.13;;
11835;SDS011;5977;51.972;7.640;2023-04-06T01:21:50;140.63;;;45.87;;
11835;SDS011;5977;51.972;7.640;2023-04-06T01:24:41;141.30;;;46.10;;
11835;SDS011;5977;51.972;7.640;2023-04-06T01:27:21;141.47;;;46.20;;
11835;SDS011;5977;51.972;7.640;2023-04-06T01:30:18;141.50;;;46.20;;
11835;SDS011;5977;51.972;7.640;2023-04-06T01:32:59;140.73;;;45.90;;
11835;SDS011;5977;51.972;7.640;2023-04-06T01:35:47;141.27;;;46.20;;
11835;SDS011;5977;51.972;7.640;2023-04-06T01:38:18;141.27;;;46.10;;
11835;SDS011;5977;51.972;7.640;2023-04-06T01:40:48;140.90;;;46.07;;
11835;SDS011;5977;51.972;7.640;2023-04-06T01:43:19;141.10;;;46.13;;
11835;SDS011;5977;51.972;7.640;2023-04-06T01:46:01;140.63;;;45.93;;
11835;SDS011;5977;51.972;7.640;2023-04-06T01:48:33;140.80;;;45.90;;
11835;SDS011;5977;51.972;7.640;2023-04-06T01:51:09;141.30;;;46.30;;
11835;SDS011;5977;51.972;7.640;2023-04-06T01:53:45;140.43;;;45.87;;
11835;SDS011;5977;51.972;7.640;2023-04-06T01:56:16;140.80;;;46.00;;
11835;SDS011;5977;51.972;7.640;2023-04-06T01:58:53;141.27;;;46.13;;
11835;SDS011;5977;51.972;7.640;2023-04-06T02:01:22;140.53;;;45.87;;
11835;SDS011;5977;51.972;7.640;2023-04-06T02:03:54;140.67;;;46.00;;
11835;SDS011;5977;51.972;7.640;2023-04-06T02:06:22;140.63;;;46.00;;
11835;SDS011;5977;51.972;7.640;2023-04-06T02:08:51;140.93;;;46.00;;
11835;SDS011;5977;51.972;7.640;2023-04-06T02:11:20;140.53;;;45.90;;
11835;SDS011;5977;51.972;7.640;2023-04-06T02:13:52;140.43;;;45.93;;
11835;SDS011;5977;51.972;7.640;2023-04-06T02:16:22;140.43;;;45.87;;
11835;SDS011;5977;51.972;7.640;2023-04-06T02:18:50;140.90;;;46.00;;
11835;SDS011;5977;51.972;7.640;2023-04-06T02:21:18;140.37;;;45.87;;
11835;SDS011;5977;51.972;7.640;2023-04-06T02:23:46;140.53;;;45.90;;
11835;SDS011;5977;51.972;7.640;2023-04-06T02:26:16;140.30;;;45.80;;
11835;SDS011;5977;51.972;7.640;2023-04-06T02:28:46;140.37;;;45.90;;
11835;SDS011;5977;51.972;7.640;2023-04-06T02:31:13;140.60;;;45.93;;
11835;SDS011;5977;51.972;7.640;2023-04-06T02:33:43;140.53;;;45.97;;
11835;SDS011;5977;51.972;7.640;2023-04-06T02:36:13;140.43;;;45.90;;
11835;SDS011;5977;51.972;7.640;2023-04-06T02:38:41;140.17;;;45.80;;
11835;SDS011;5977;51.972;7.640;2023-04-06T02:41:10;140.10;;;45.83;;
11835;SDS011;5977;51.972;7.640;2023-04-06T02:43:38;139.87;;;45.67;;
11835;SDS011;5977;51.972;7.640;2023-04-06T02:46:22;139.70;;;45.67;;
11835;SDS011;5977;51.972;7.640;2023-04-06T02:48:51;140.10;;;45.90;;
11835;SDS011;5977;51.972;7.640;2023-04-06T02:51:19;139.90;;;45.73;;
11835;SDS011;5977;51.972;7.640;2023-04-06T02:53:52;140.50;;;46.03;;
11835;SDS011;5977;51.972;7.640;2023-04-06T02:56:20;140.03;;;45.87;;
11835;SDS011;5977;51.972;7.640;2023-04-06T02:58:50;140.17;;;45.83;;
11835;SDS011;5977;51.972;7.640;2023-04-06T03:01:22;139.77;;;45.73;;
11835;SDS011;5977;51.972;7.640;2023-04-06T03:03:55;139.27;;;45.50;;
11835;SDS011;5977;51.972;7.640;2023-04-06T03:06:25;140.87;;;46.10;;
11835;SDS011;5977;51.972;7.640;2023-04-06T03:08:58;140.20;;;45.80;;
11835;SDS011;5977;51.972;7.640;2023-04-06T03:11:26;140.27;;;45.83;;
11835;SDS011;5977;51.972;7.640;2023-04-06T03:13:53;139.93;;;45.83;;
11835;SDS011;5977;51.972;7.640;2023-04-06T03:16:23;140.00;;;45.80;;
11835;SDS011;5977;51.972;7.640;2023-04-06T03:18:51;140.13;;;45.90;;
11835;SDS011;5977;51.972;7.640;2023-04-06T03:21:20;139.40;;;45.60;;
11835;SDS011;5977;51.972;7.640;2023-04-06T03:23:50;140.27;;;45.90;;
11835;SDS011;5977;51.972;7.640;2023-04-06T03:26:18;140.10;;;45.93;;
11835;SDS011;5977;51.972;7.640;2023-04-06T03:28:50;139.77;;;45.83;;
11835;SDS011;5977;51.972;7.640;2023-04-06T03:31:20;140.17;;;45.90;;
11835;SDS011;5977;51.972;7.640;2023-04-06T03:34:05;139.90;;;45.77;;
11835;SDS011;5977;51.972;7.640;2023-04-06T03:36:35;140.13;;;45.83;;
11835;SDS011;5977;51.972;7.640;2023-04-06T03:39:03;139.97;;;45.90;;
11835;SDS011;5977;51.972;7.640;2023-04-06T03:41:35;140.50;;;46.00;;
11835;SDS011;5977;51.972;7.640;2023-04-06T03:44:18;139.67;;;45.77;;
11835;SDS011;5977;51.972;7.640;2023-04-06T03:46:48;140.53;;;46.07;;
11835;SDS011;5977;51.972;7.640;2023-04-06T03:49:17;140.13;;;45.90;;
11835;SDS011;5977;51.972;7.640;2023-04-06T03:51:48;139.80;;;45.77;;
11835;SDS011;5977;51.972;7.640;2023-04-06T03:54:16;140.07;;;45.87;;
11835;SDS011;5977;51.972;7.640;2023-04-06T03:56:44;140.30;;;46.03;;
11835;SDS011;5977;51.972;7.640;2023-04-06T03:59:12;140.10;;;45.90;;
11835;SDS011;5977;51.972;7.640;2023-04-06T04:01:39;140.10;;;45.90;;
11835;SDS011;5977;51.972;7.640;2023-04-06T04:04:09;139.93;;;45.90;;
11835;SDS011;5977;51.972;7.640;2023-04-06T04:06:37;140.00;;;46.00;;
11835;SDS011;5977;51.972;7.640;2023-04-06T04:09:06;140.30;;;46.00;;
11835;SDS011;5977;51.972;7.640;2023-04-06T04:11:36;140.13;;;45.90;;
11835;SDS011;5977;51.972;7.640;2023-04-06T04:14:03;139.83;;;45.80;;
11835;SDS011;5977;51.972;7.640;2023-04-06T04:16:31;139.23;;;45.57;;
11835;SDS011;5977;51.972;7.640;2023-04-06T04:18:59;139.93;;;45.73;;
11835;SDS011;5977;51.972;7.640;2023-04-06T04:21:30;139.90;;;45.80;;
11835;SDS011;5977;51.972;7.640;2023-04-06T04:24:03;139.80;;;45.80;;
11835;SDS011;5977;51.972;7.640;2023-04-06T04:26:33;139.33;;;45.67;;
11835;SDS011;5977;51.972;7.640;2023-04-06T04:29:01;139.73;;;45.70;;
11835;SDS011;5977;51.972;7.640;2023-04-06T04:31:29;139.67;;;45.77;;
11835;SDS011;5977;51.972;7.640;2023-04-06T04:34:01;139.70;;;45.73;;
11835;SDS011;5977;51.972;7.640;2023-04-06T04:36:33;139.40;;;45.70;;
11835;SDS011;5977;51.972;7.640;2023-04-06T04:39:04;139.97;;;46.00;;
11835;SDS011;5977;51.972;7.640;2023-04-06T04:41:36;139.80;;;45.87;;
11835;SDS011;5977;51.972;7.640;2023-04-06T04:44:07;140.27;;;46.00;;
11835;SDS011;5977;51.972;7.640;2023-04-06T04:46:35;138.77;;;45.47;;
11835;SDS011;5977;51.972;7.640;2023-04-06T04:49:04;139.43;;;45.70;;
11835;SDS011;5977;51.972;7.640;2023-04-06T04:51:34;139.83;;;45.83;;
11835;SDS011;5977;51.972;7.640;2023-04-06T04:54:17;139.13;;;45.67;;
11835;SDS011;5977;51.972;7.640;2023-04-06T04:56:46;139.70;;;45.87;;
11835;SDS011;5977;51.972;7.640;2023-04-06T04:59:22;139.83;;;45.83;;
11835;SDS011;5977;51.972;7.640;2023-04-06T05:01:57;139.43;;;45.73;;
11835;SDS011;5977;51.972;7.640;2023-04-06T05:04:35;139.40;;;45.70;;
11835;SDS011;5977;51.972;7.640;2023-04-06T05:07:06;139.10;;;45.67;;
11835;SDS011;5977;51.972;7.640;2023-04-06T05:09:37;139.37;;;45.70;;
11835;SDS011;5977;51.972;7.640;2023-04-06T05:12:05;139.17;;;45.67;;
11835;SDS011;5977;51.972;7.640;2023-04-06T05:14:41;139.77;;;45.80;;
11835;SDS011;5977;51.972;7.640;2023-04-06T05:17:13;138.97;;;45.63;;
11835;SDS011;5977;51.972;7.640;2023-04-06T05:19:41;139.20;;;45.70;;
11835;SDS011;5977;51.972;7.640;2023-04-06T05:22:12;139.27;;;45.80;;
11835;SDS011;5977;51.972;7.640;2023-04-06T05:24:44;138.80;;;45.47;;
11835;SDS011;5977;51.972;7.640;2023-04-06T05:27:12;139.67;;;45.87;;
11835;SDS011;5977;51.972;7.640;2023-04-06T05:29:40;139.40;;;45.67;;
11835;SDS011;5977;51.972;7.640;2023-04-06T05:32:08;139.33;;;45.60;;
11835;SDS011;5977;51.972;7.640;2023-04-06T05:34:36;139.60;;;45.70;;
11835;SDS011;5977;51.972;7.640;2023-04-06T05:37:05;138.30;;;45.17;;
11835;SDS011;5977;51.972;7.640;2023-04-06T05:39:35;138.03;;;45.20;;
11835;SDS011;5977;51.972;7.640;2023-04-06T05:42:03;136.43;;;44.57;;
11835;SDS011;5977;51.972;7.640;2023-04-06T05:44:52;136.17;;;44.60;;
11835;SDS011;5977;51.972;7.640;2023-04-06T05:47:20;136.10;;;44.70;;
11835;SDS011;5977;51.972;7.640;2023-04-06T05:49:56;134.97;;;44.23;;
11835;SDS011;5977;51.972;7.640;2023-04-06T05:52:31;135.10;;;44.20;;
11835;SDS011;5977;51.972;7.640;2023-04-06T05:55:00;134.87;;;44.20;;
11835;SDS011;5977;51.972;7.640;2023-04-06T05:57:29;134.37;;;44.03;;
11835;SDS011;5977;51.972;7.640;2023-04-06T05:59:57;134.83;;;44.30;;
11835;SDS011;5977;51.972;7.640;2023-04-06T06:02:37;133.57;;;43.80;;
11835;SDS011;5977;51.972;7.640;2023-04-06T06:05:08;134.03;;;44.10;;
11835;SDS011;5977;51.972;7.640;2023-04-06T06:07:39;133.77;;;44.00;;
11835;SDS011;5977;51.972;7.640;2023-04-06T06:10:09;133.63;;;43.97;;
11835;SDS011;5977;51.972;7.640;2023-04-06T06:12:38;133.90;;;44.10;;
11835;SDS011;5977;51.972;7.640;2023-04-06T06:15:06;133.93;;;44.07;;
11835;SDS011;5977;51.972;7.640;2023-04-06T06:17:39;133.97;;;44.20;;
11835;SDS011;5977;51.972;7.640;2023-04-06T06:20:07;133.80;;;44.10;;
11835;SDS011;5977;51.972;7.640;2023-04-06T06:22:36;134.57;;;44.40;;
11835;SDS011;5977;51.972;7.640;2023-04-06T06:25:05;135.73;;;44.80;;
11835;SDS011;5977;51.972;7.640;2023-04-06T06:27:35;136.10;;;44.70;;
11835;SDS011;5977;51.972;7.640;2023-04-06T06:30:04;136.87;;;45.00;;
11835;SDS011;5977;51.972;7.640;2023-04-06T06:32:34;137.03;;;45.07;;
11835;SDS011;5977;51.972;7.640;2023-04-06T06:35:02;138.13;;;45.30;;
11835;SDS011;5977;51.972;7.640;2023-04-06T06:37:31;138.87;;;45.63;;
11835;SDS011;5977;51.972;7.640;2023-04-06T06:40:00;138.87;;;45.63;;
11835;SDS011;5977;51.972;7.640;2023-04-06T06:42:30;139.10;;;45.73;;
11835;SDS011;5977;51.972;7.640;2023-04-06T06:45:35;138.80;;;45.57;;
11835;SDS011;5977;51.972;7.640;2023-04-06T06:48:03;139.40;;;45.73;;
11835;SDS011;5977;51.972;7.640;2023-04-06T06:50:31;139.40;;;45.67;;
11835;SDS011;5977;51.972;7.640;2023-04-06T06:52:58;140.63;;;46.20;;
11835;SDS011;5977;51.972;7.640;2023-04-06T06:55:26;140.73;;;46.33;;
11835;SDS011;5977;51.972;7.640;2023-04-06T06:57:54;140.83;;;46.27;;
11835;SDS011;5977;51.972;7.640;2023-04-06T07:00:22;141.77;;;46.70;;
11835;SDS011;5977;51.972;7.640;2023-04-06T07:02:53;141.40;;;46.43;;
11835;SDS011;5977;51.972;7.640;2023-04-06T07:05:21;141.80;;;46.70;;
11835;SDS011;5977;51.972;7.640;2023-04-06T07:07:56;141.40;;;46.27;;
11835;SDS011;5977;51.972;7.640;2023-04-06T07:10:24;141.40;;;46.40;;
11835;SDS011;5977;51.972;7.640;2023-04-06T07:12:53;141.87;;;46.57;;
11835;SDS011;5977;51.972;7.640;2023-04-06T07:15:21;141.90;;;46.63;;
11835;SDS011;5977;51.972;7.640;2023-04-06T07:17:50;142.13;;;46.67;;
11835;SDS011;5977;51.972;7.640;2023-04-06T07:20:20;141.70;;;46.27;;
11835;SDS011;5977;51.972;7.640;2023-04-06T07:22:48;142.37;;;46.73;;
11835;SDS011;5977;51.972;7.640;2023-04-06T07:25:15;142.13;;;46.57;;
11835;SDS011;5977;51.972;7.640;2023-04-06T07:27:43;141.83;;;46.50;;
11835;SDS011;5977;51.972;7.640;2023-04-06T07:30:11;142.20;;;46.63;;
11835;SDS011;5977;51.972;7.640;2023-04-06T07:32:39;142.23;;;46.60;;
11835;SDS011;5977;51.972;7.640;2023-04-06T07:35:08;142.20;;;46.70;;
11835;SDS011;5977;51.972;7.640;2023-04-06T07:37:37;143.27;;;47.10;;
11835;SDS011;5977;51.972;7.640;2023-04-06T07:40:06;143.43;;;47.17;;
11835;SDS011;5977;51.972;7.640;2023-04-06T07:42:35;143.70;;;47.20;;
11835;SDS011;5977;51.972;7.640;2023-04-06T07:45:06;144.00;;;47.30;;
11835;SDS011;5977;51.972;7.640;2023-04-06T07:47:34;143.53;;;47.00;;
11835;SDS011;5977;51.972;7.640;2023-04-06T07:50:02;143.50;;;47.03;;
11835;SDS011;5977;51.972;7.640;2023-04-06T07:52:31;145.30;;;47.77;;
11835;SDS011;5977;51.972;7.640;2023-04-06T07:55:04;145.03;;;47.43;;
11835;SDS011;5977;51.972;7.640;2023-04-06T07:57:32;145.83;;;47.93;;
11835;SDS011;5977;51.972;7.640;2023-04-06T08:00:00;145.67;;;47.80;;
11835;SDS011;5977;51.972;7.640;2023-04-06T08:02:37;146.13;;;48.07;;
11835;SDS011;5977;51.972;7.640;2023-04-06T08:05:05;146.03;;;48.07;;
11835;SDS011;5977;51.972;7.640;2023-04-06T08:07:34;145.80;;;47.73;;
11835;SDS011;5977;51.972;7.640;2023-04-06T08:10:04;146.57;;;48.27;;
11835;SDS011;5977;51.972;7.640;2023-04-06T08:12:32;147.23;;;48.37;;
11835;SDS011;5977;51.972;7.640;2023-04-06T08:15:00;147.53;;;48.57;;
11835;SDS011;5977;51.972;7.640;2023-04-06T08:17:31;147.67;;;48.50;;
11835;SDS011;5977;51.972;7.640;2023-04-06T08:20:00;147.87;;;48.53;;
11835;SDS011;5977;51.972;7.640;2023-04-06T08:22:29;147.77;;;48.47;;
11835;SDS011;5977;51.972;7.640;2023-04-06T08:24:57;147.57;;;48.47;;
11835;SDS011;5977;51.972;7.640;2023-04-06T08:27:26;148.53;;;48.97;;
11835;SDS011;5977;51.972;7.640;2023-04-06T08:29:54;148.80;;;48.93;;
11835;SDS011;5977;51.972;7.640;2023-04-06T08:32:22;148.80;;;48.97;;
11835;SDS011;5977;51.972;7.640;2023-04-06T08:34:52;149.17;;;49.17;;
11835;SDS011;5977;51.972;7.640;2023-04-06T08:37:21;149.60;;;49.07;;
11835;SDS011;5977;51.972;7.640;2023-04-06T08:39:49;149.93;;;49.30;;
11835;SDS011;5977;51.972;7.640;2023-04-06T08:42:19;150.00;;;49.30;;
11835;SDS011;5977;51.972;7.640;2023-04-06T08:44:49;150.70;;;49.77;;
11835;SDS011;5977;51.972;7.640;2023-04-06T08:47:18;150.43;;;49.57;;
11835;SDS011;5977;51.972;7.640;2023-04-06T08:49:50;150.43;;;49.40;;
11835;SDS011;5977;51.972;7.640;2023-04-06T08:52:18;149.37;;;48.83;;
11835;SDS011;5977;51.972;7.640;2023-04-06T08:54:47;150.73;;;49.63;;
11835;SDS011;5977;51.972;7.640;2023-04-06T08:57:15;151.10;;;49.60;;
11835;SDS011;5977;51.972;7.640;2023-04-06T08:59:45;151.47;;;49.93;;
11835;SDS011;5977;51.972;7.640;2023-04-06T09:02:15;151.07;;;49.53;;
11835;SDS011;5977;51.972;7.640;2023-04-06T09:04:45;150.93;;;49.63;;
11835;SDS011;5977;51.972;7.640;2023-04-06T09:07:16;151.10;;;49.67;;
11835;SDS011;5977;51.972;7.640;2023-04-06T09:09:44;151.37;;;49.93;;
11835;SDS011;5977;51.972;7.640;2023-04-06T09:12:24;151.17;;;49.77;;
11835;SDS011;5977;51.972;7.640;2023-04-06T09:14:53;151.30;;;49.67;;
11835;SDS011;5977;51.972;7.640;2023-04-06T09:17:23;151.57;;;49.80;;
11835;SDS011;5977;51.972;7.640;2023-04-06T09:19:53;151.00;;;49.80;;
11835;SDS011;5977;51.972;7.640;2023-04-06T09:22:21;151.17;;;49.50;;
11835;SDS011;5977;51.972;7.640;2023-04-06T09:24:51;151.33;;;49.83;;
11835;SDS011;5977;51.972;7.640;2023-04-06T09:27:29;150.87;;;49.40;;
11835;SDS011;5977;51.972;7.640;2023-04-06T09:30:03;151.17;;;49.70;;
11835;SDS011;5977;51.972;7.640;2023-04-06T09:32:43;150.33;;;49.43;;
11835;SDS011;5977;51.972;7.640;2023-04-06T09:35:12;149.57;;;48.80;;
11835;SDS011;5977;51.972;7.640;2023-04-06T09:37:41;150.60;;;49.47;;
11835;SDS011;5977;51.972;7.640;2023-04-06T09:40:09;150.80;;;49.47;;
11835;SDS011;5977;51.972;7.640;2023-04-06T09:42:46;150.60;;;49.37;;
11835;SDS011;5977;51.972;7.640;2023-04-06T09:45:22;150.30;;;49.13;;
11835;SDS011;5977;51.972;7.640;2023-04-06T09:47:54;150.87;;;49.37;;
11835;SDS011;5977;51.972;7.640;2023-04-06T09:50:23;150.53;;;49.57;;
11835;SDS011;5977;51.972;7.640;2023-04-06T09:52:53;150.83;;;49.27;;
11835;SDS011;5977;51.972;7.640;2023-04-06T09:55:23;151.17;;;49.57;;
11835;SDS011;5977;51.972;7.640;2023-04-06T09:57:58;150.80;;;49.63;;
11835;SDS011;5977;51.972;7.640;2023-04-06T10:00:32;151.07;;;49.60;;
11835;SDS011;5977;51.972;7.640;2023-04-06T10:03:11;151.73;;;49.80;;
11835;SDS011;5977;51.972;7.640;2023-04-06T10:05:46;150.20;;;49.07;;
11835;SDS011;5977;51.972;7.640;2023-04-06T10:08:19;151.07;;;49.70;;
11835;SDS011;5977;51.972;7.640;2023-04-06T10:10:57;150.37;;;49.17;;
11835;SDS011;5977;51.972;7.640;2023-04-06T10:13:27;150.33;;;49.30;;
11835;SDS011;5977;51.972;7.640;2023-04-06T10:15:55;151.60;;;49.73;;
11835;SDS011;5977;51.972;7.640;2023-04-06T10:18:24;150.80;;;49.50;;
11835;SDS011;5977;51.972;7.640;2023-04-06T10:20:53;150.63;;;49.37;;
11835;SDS011;5977;51.972;7.640;2023-04-06T10:23:26;150.53;;;49.37;;
11835;SDS011;5977;51.972;7.640;2023-04-06T10:26:00;150.77;;;49.30;;
11835;SDS011;5977;51.972;7.640;2023-04-06T10:28:30;150.33;;;49.33;;
11835;SDS011;5977;51.972;7.640;2023-04-06T10:31:00;150.60;;;49.23;;
11835;SDS011;5977;51.972;7.640;2023-04-06T10:33:30;150.53;;;49.37;;
11835;SDS011;5977;51.972;7.640;2023-04-06T10:36:08;150.30;;;49.03;;
11835;SDS011;5977;51.972;7.640;2023-04-06T10:38:37;150.53;;;49.27;;
11835;SDS011;5977;51.972;7.640;2023-04-06T10:41:10;150.27;;;49.27;;
11835;SDS011;5977;51.972;7.640;2023-04-06T10:43:39;150.03;;;49.17;;
11835;SDS011;5977;51.972;7.640;2023-04-06T10:46:08;150.67;;;49.30;;
11835;SDS011;5977;51.972;7.640;2023-04-06T10:48:40;150.10;;;48.93;;
11835;SDS011;5977;51.972;7.640;2023-04-06T10:51:10;150.63;;;49.30;;
11835;SDS011;5977;51.972;7.640;2023-04-06T10:53:39;150.53;;;49.20;;
11835;SDS011;5977;51.972;7.640;2023-04-06T10:56:10;150.40;;;49.07;;
11835;SDS011;5977;51.972;7.640;2023-04-06T10:58:43;150.40;;;49.17;;
11835;SDS011;5977;51.972;7.640;2023-04-06T11:01:12;150.30;;;49.20;;
11835;SDS011;5977;51.972;7.640;2023-04-06T11:03:44;150.53;;;49.30;;
11835;SDS011;5977;51.972;7.640;2023-04-06T11:06:17;150.70;;;49.23;;
11835;SDS011;5977;51.972;7.640;2023-04-06T11:08:46;150.67;;;49.23;;
11835;SDS011;5977;51.972;7.640;2023-04-06T11:11:15;150.70;;;49.30;;
11835;SDS011;5977;51.972;7.640;2023-04-06T11:13:48;150.33;;;49.30;;
11835;SDS011;5977;51.972;7.640;2023-04-06T11:16:18;150.27;;;49.27;;
11835;SDS011;5977;51.972;7.640;2023-04-06T11:18:49;149.83;;;49.00;;
11835;SDS011;5977;51.972;7.640;2023-04-06T11:21:18;150.30;;;49.07;;
11835;SDS011;5977;51.972;7.640;2023-04-06T11:23:46;150.10;;;48.97;;
11835;SDS011;5977;51.972;7.640;2023-04-06T11:26:14;151.27;;;49.50;;
11835;SDS011;5977;51.972;7.640;2023-04-06T11:28:42;150.80;;;49.43;;
11835;SDS011;5977;51.972;7.640;2023-04-06T11:31:10;151.10;;;49.57;;
11835;SDS011;5977;51.972;7.640;2023-04-06T11:33:38;151.23;;;49.50;;
11835;SDS011;5977;51.972;7.640;2023-04-06T11:36:08;150.57;;;49.20;;
11835;SDS011;5977;51.972;7.640;2023-04-06T11:38:38;151.70;;;49.50;;
11835;SDS011;5977;51.972;7.640;2023-04-06T11:41:06;151.73;;;49.90;;
11835;SDS011;5977;51.972;7.640;2023-04-06T11:43:34;151.50;;;49.80;;
11835;SDS011;5977;51.972;7.640;2023-04-06T11:46:03;151.70;;;49.87;;
11835;SDS011;5977;51.972;7.640;2023-04-06T11:48:32;150.77;;;49.47;;
11835;SDS011;5977;51.972;7.640;2023-04-06T11:51:12;151.67;;;49.83;;
11835;SDS011;5977;51.972;7.640;2023-04-06T11:53:49;151.57;;;49.77;;
11835;SDS011;5977;51.972;7.640;2023-04-06T11:56:22;151.93;;;49.77;;
11835;SDS011;5977;51.972;7.640;2023-04-06T11:58:51;150.50;;;49.23;;
11835;SDS011;5977;51.972;7.640;2023-04-06T12:01:19;150.63;;;49.30;;
11835;SDS011;5977;51.972;7.640;2023-04-06T12:03:47;150.77;;;49.37;;
11835;SDS011;5977;51.972;7.640;2023-04-06T12:06:17;151.17;;;49.47;;
11835;SDS011;5977;51.972;7.640;2023-04-06T12:08:45;151.37;;;49.70;;
11835;SDS011;5977;51.972;7.640;2023-04-06T12:11:13;151.10;;;49.37;;
11835;SDS011;5977;51.972;7.640;2023-04-06T12:13:41;150.40;;;49.17;;
11835;SDS011;5977;51.972;7.640;2023-04-06T12:16:09;150.63;;;49.17;;
11835;SDS011;5977;51.972;7.640;2023-04-06T12:18:37;150.70;;;49.20;;
11835;SDS011;5977;51.972;7.640;2023-04-06T12:21:05;150.73;;;49.10;;
11835;SDS011;5977;51.972;7.640;2023-04-06T12:23:34;151.47;;;49.60;;
11835;SDS011;5977;51.972;7.640;2023-04-06T12:26:02;151.30;;;49.60;;
11835;SDS011;5977;51.972;7.640;2023-04-06T12:28:30;150.77;;;49.07;;
11835;SDS011;5977;51.972;7.640;2023-04-06T12:30:58;150.57;;;49.07;;
11835;SDS011;5977;51.972;7.640;2023-04-06T12:33:26;150.73;;;49.17;;
11835;SDS011;5977;51.972;7.640;2023-04-06T12:35:54;151.33;;;49.30;;
11835;SDS011;5977;51.972;7.640;2023-04-06T12:38:22;151.40;;;49.47;;
11835;SDS011;5977;51.972;7.640;2023-04-06T12:40:51;151.37;;;49.40;;
11835;SDS011;5977;51.972;7.640;2023-04-06T12:43:19;150.83;;;49.13;;
11835;SDS011;5977;51.972;7.640;2023-04-06T12:45:47;152.07;;;49.87;;
11835;SDS011;5977;51.972;7.640;2023-04-06T12:48:15;151.33;;;49.57;;
11835;SDS011;5977;51.972;7.640;2023-04-06T12:50:42;151.07;;;49.47;;
11835;SDS011;5977;51.972;7.640;2023-04-06T12:53:10;151.23;;;49.37;;
11835;SDS011;5977;51.972;7.640;2023-04-06T12:55:38;150.70;;;49.13;;
11835;SDS011;5977;51.972;7.640;2023-04-06T12:58:07;151.43;;;49.50;;
11835;SDS011;5977;51.972;7.640;2023-04-06T13:00:35;150.63;;;49.10;;
11835;SDS011;5977;51.972;7.640;2023-04-06T13:03:03;151.47;;;49.50;;
11835;SDS011;5977;51.972;7.640;2023-04-06T13:05:31;151.20;;;49.53;;
11835;SDS011;5977;51.972;7.640;2023-04-06T13:07:59;151.00;;;49.37;;
11835;SDS011;5977;51.972;7.640;2023-04-06T13:10:26;150.23;;;49.07;;
11835;SDS011;5977;51.972;7.640;2023-04-06T13:12:54;150.50;;;48.93;;
11835;SDS011;5977;51.972;7.640;2023-04-06T13:15:23;151.50;;;49.47;;
11835;SDS011;5977;51.972;7.640;2023-04-06T13:17:51;151.30;;;49.80;;
11835;SDS011;5977;51.972;7.640;2023-04-06T13:20:21;151.23;;;49.57;;
11835;SDS011;5977;51.972;7.640;2023-04-06T13:22:50;151.13;;;49.30;;
11835;SDS011;5977;51.972;7.640;2023-04-06T13:25:18;151.17;;;49.57;;
11835;SDS011;5977;51.972;7.640;2023-04-06T13:27:46;151.17;;;49.37;;
11835;SDS011;5977;51.972;7.640;2023-04-06T13:30:15;150.93;;;49.07;;
11835;SDS011;5977;51.972;7.640;2023-04-06T13:32:44;150.93;;;49.27;;
11835;SDS011;5977;51.972;7.640;2023-04-06T13:35:13;150.57;;;49.03;;
11835;SDS011;5977;51.972;7.640;2023-04-06T13:37:41;150.90;;;49.30;;
11835;SDS011;5977;51.972;7.640;2023-04-06T13:40:09;150.40;;;48.87;;
11835;SDS011;5977;51.972;7.640;2023-04-06T13:42:38;151.77;;;49.63;;
11835;SDS011;5977;51.972;7.640;2023-04-06T13:45:07;151.07;;;49.57;;
11835;SDS011;5977;51.972;7.640;2023-04-06T13:47:36;151.60;;;49.77;;
11835;SDS011;5977;51.972;7.640;2023-04-06T13:50:06;151.73;;;49.57;;
11835;SDS011;5977;51.972;7.640;2023-04-06T13:52:34;151.53;;;49.67;;
11835;SDS011;5977;51.972;7.640;2023-04-06T13:55:03;151.40;;;49.60;;
11835;SDS011;5977;51.972;7.640;2023-04-06T13:57:31;150.47;;;49.07;;
11835;SDS011;5977;51.972;7.640;2023-04-06T13:59:59;151.47;;;49.80;;
11835;SDS011;5977;51.972;7.640;2023-04-06T14:02:32;150.80;;;49.30;;
11835;SDS011;5977;51.972;7.640;2023-04-06T14:05:00;151.03;;;49.43;;
11835;SDS011;5977;51.972;7.640;2023-04-06T14:07:30;151.00;;;49.37;;
11835;SDS011;5977;51.972;7.640;2023-04-06T14:09:58;151.40;;;49.63;;
11835;SDS011;5977;51.972;7.640;2023-04-06T14:12:26;150.90;;;49.30;;
11835;SDS011;5977;51.972;7.640;2023-04-06T14:14:54;150.83;;;49.27;;
11835;SDS011;5977;51.972;7.640;2023-04-06T14:17:22;150.37;;;49.03;;
11835;SDS011;5977;51.972;7.640;2023-04-06T14:19:50;150.77;;;49.20;;
11835;SDS011;5977;51.972;7.640;2023-04-06T14:22:19;150.77;;;49.20;;
11835;SDS011;5977;51.972;7.640;2023-04-06T14:24:48;150.83;;;49.27;;
11835;SDS011;5977;51.972;7.640;2023-04-06T14:27:15;150.33;;;48.93;;
11835;SDS011;5977;51.972;7.640;2023-04-06T14:29:43;151.20;;;49.53;;
11835;SDS011;5977;51.972;7.640;2023-04-06T14:32:11;150.00;;;48.83;;
11835;SDS011;5977;51.972;7.640;2023-04-06T14:34:39;150.83;;;49.10;;
11835;SDS011;5977;51.972;7.640;2023-04-06T14:37:07;151.20;;;49.60;;
11835;SDS011;5977;51.972;7.640;2023-04-06T14:39:35;149.90;;;48.80;;